Time,TemperatureF,DewpointF,PressureIn,WindDirection,WindDirectionDegrees,WindSpeedMPH,WindSpeedGustMPH,Humidity,HourlyPrecipIn,Conditions,Clouds,dailyrainin,SoftwareType,DateUTC
2013-05-22 00:01:00,64.2,63.6,29.74,SE,135,0.0,-999.0,98,-99.99,,,0.00,Acu-Link.com,2013-05-22 04:01:00,
2013-05-22 00:16:00,63.7,63.1,29.73,NE,45,0.0,-999.0,98,-99.99,,,0.00,Acu-Link.com,2013-05-22 04:16:00,
2013-05-22 00:31:00,63.5,62.9,29.72,SE,135,0.0,-999.0,98,-99.99,,,0.00,Acu-Link.com,2013-05-22 04:31:00,
2013-05-22 00:46:00,63.3,62.7,29.72,ESE,112,0.0,-999.0,98,-99.99,,,0.00,Acu-Link.com,2013-05-22 04:46:00,
2013-05-22 01:02:00,62.8,62.2,29.73,NNW,337,1.1,-999.0,98,-99.99,,,0.00,Acu-Link.com,2013-05-22 05:02:00,
2013-05-22 01:17:00,62.6,62.0,29.74,SW,225,0.0,-999.0,98,-99.99,,,0.00,Acu-Link.com,2013-05-22 05:17:00,
2013-05-22 01:32:00,62.6,62.0,29.72,SSE,157,0.0,-999.0,98,-99.99,,,0.00,Acu-Link.com,2013-05-22 05:32:00,
2013-05-22 01:47:00,62.4,61.8,29.72,SSE,157,0.0,-999.0,98,-99.99,,,0.00,Acu-Link.com,2013-05-22 05:47:00,
2013-05-22 02:02:00,62.2,61.6,29.71,ESE,112,0.0,-999.0,98,-99.99,,,0.00,Acu-Link.com,2013-05-22 06:02:00,
2013-05-22 02:18:00,62.2,61.6,29.71,NE,45,0.0,-999.0,98,-99.99,,,0.00,Acu-Link.com,2013-05-22 06:18:00,
2013-05-22 02:33:00,62.1,61.5,29.70,ESE,112,0.0,-999.0,98,-99.99,,,0.00,Acu-Link.com,2013-05-22 06:33:00,
2013-05-22 02:48:00,62.2,61.6,29.69,SSE,157,0.0,-999.0,98,-99.99,,,0.00,Acu-Link.com,2013-05-22 06:48:00,
2013-05-22 03:04:00,62.1,61.5,29.69,SSE,157,0.0,-999.0,98,-99.99,,,0.00,Acu-Link.com,2013-05-22 07:04:00,
2013-05-22 03:19:00,61.9,61.3,29.68,SSE,157,1.1,-999.0,98,-99.99,,,0.00,Acu-Link.com,2013-05-22 07:19:00,
2013-05-22 03:34:00,61.7,61.1,29.69,South,180,0.0,-999.0,98,-99.99,,,0.00,Acu-Link.com,2013-05-22 07:34:00,
2013-05-22 03:50:00,61.3,60.7,29.69,SSE,157,1.1,-999.0,98,-99.99,,,0.00,Acu-Link.com,2013-05-22 07:50:00,
2013-05-22 04:06:00,61.2,60.6,29.68,South,180,0.0,-999.0,98,-99.99,,,0.00,Acu-Link.com,2013-05-22 08:06:00,
2013-05-22 04:21:00,61.2,60.6,29.68,South,180,0.0,-999.0,98,-99.99,,,0.00,Acu-Link.com,2013-05-22 08:21:00,
2013-05-22 04:37:00,61.0,60.4,29.68,ESE,112,0.0,-999.0,98,-99.99,,,0.00,Acu-Link.com,2013-05-22 08:37:00,
2013-05-22 04:52:00,61.0,60.4,29.70,SSE,157,0.0,-999.0,98,-99.99,,,0.00,Acu-Link.com,2013-05-22 08:52:00,
2013-05-22 05:07:00,61.0,60.4,29.70,West,270,0.0,-999.0,98,-99.99,,,0.00,Acu-Link.com,2013-05-22 09:07:00,
2013-05-22 05:22:00,61.3,60.7,29.71,SSE,157,2.2,-999.0,98,-99.99,,,0.00,Acu-Link.com,2013-05-22 09:22:00,
2013-05-22 05:37:00,61.3,60.7,29.71,SSE,157,0.0,-999.0,98,-99.99,,,0.00,Acu-Link.com,2013-05-22 09:37:00,
2013-05-22 05:52:00,61.9,61.3,29.71,ESE,112,0.0,-999.0,98,-99.99,,,0.00,Acu-Link.com,2013-05-22 09:52:00,
2013-05-22 06:08:00,61.9,61.3,29.70,SSW,202,0.0,-999.0,98,-99.99,,,0.00,Acu-Link.com,2013-05-22 10:08:00,
2013-05-22 06:23:00,61.9,61.3,29.70,NNW,337,0.0,-999.0,98,-99.99,,,0.00,Acu-Link.com,2013-05-22 10:23:00,
2013-05-22 06:38:00,62.2,61.6,29.71,SSE,157,0.0,-999.0,98,-99.99,,,0.00,Acu-Link.com,2013-05-22 10:38:00,
2013-05-22 06:53:00,62.4,61.8,29.70,South,180,0.0,-999.0,98,-99.99,,,0.00,Acu-Link.com,2013-05-22 10:53:00,
2013-05-22 07:09:00,62.2,61.6,29.70,ESE,112,0.0,-999.0,98,-99.99,,,0.00,Acu-Link.com,2013-05-22 11:09:00,
2013-05-22 07:24:00,62.6,62.0,29.70,SSE,157,0.0,-999.0,98,-99.99,,,0.00,Acu-Link.com,2013-05-22 11:24:00,
2013-05-22 07:39:00,63.1,62.5,29.71,NNE,22,0.0,-999.0,98,-99.99,,,0.00,Acu-Link.com,2013-05-22 11:39:00,
2013-05-22 07:54:00,64.2,63.6,29.71,NNE,22,0.0,-999.0,98,-99.99,,,0.00,Acu-Link.com,2013-05-22 11:54:00,
2013-05-22 08:10:00,65.1,64.5,29.71,ESE,112,0.0,-999.0,98,-99.99,,,0.00,Acu-Link.com,2013-05-22 12:10:00,
2013-05-22 08:25:00,65.3,64.7,29.73,NNE,22,0.0,-999.0,98,-99.99,,,0.00,Acu-Link.com,2013-05-22 12:25:00,
2013-05-22 08:40:00,66.7,66.1,29.73,NNE,22,0.0,-999.0,98,-99.99,,,0.00,Acu-Link.com,2013-05-22 12:40:00,
2013-05-22 08:56:00,67.5,66.9,29.73,WSW,247,0.0,-999.0,98,-99.99,,,0.00,Acu-Link.com,2013-05-22 12:56:00,
2013-05-22 09:11:00,68.5,67.9,29.73,North,0,0.0,-999.0,98,-99.99,,,0.00,Acu-Link.com,2013-05-22 13:11:00,
2013-05-22 09:26:00,70.0,69.4,29.73,NE,45,0.0,-999.0,98,-99.99,,,0.00,Acu-Link.com,2013-05-22 13:26:00,
2013-05-22 09:41:00,70.7,70.1,29.73,ESE,112,0.0,-999.0,98,-99.99,,,0.00,Acu-Link.com,2013-05-22 13:41:00,
2013-05-22 09:57:00,72.0,71.4,29.73,ESE,112,1.7,-999.0,98,-99.99,,,0.00,Acu-Link.com,2013-05-22 13:57:00,
2013-05-22 10:12:00,73.8,73.2,29.72,NNE,22,1.7,-999.0,98,-99.99,,,0.00,Acu-Link.com,2013-05-22 14:12:00,
2013-05-22 10:27:00,74.8,72.3,29.71,ENE,67,1.1,-999.0,92,-99.99,,,0.00,Acu-Link.com,2013-05-22 14:27:00,
2013-05-22 10:43:00,75.7,71.9,29.71,SSE,157,1.7,-999.0,88,-99.99,,,0.00,Acu-Link.com,2013-05-22 14:43:00,
2013-05-22 10:58:00,77.4,71.1,29.70,ESE,112,2.2,-999.0,81,-99.99,,,0.00,Acu-Link.com,2013-05-22 14:58:00,
2013-05-22 11:13:00,78.4,70.6,29.70,SSE,157,4.2,-999.0,77,-99.99,,,0.00,Acu-Link.com,2013-05-22 15:13:00,
2013-05-22 11:28:00,79.2,71.0,29.69,South,180,2.7,-999.0,76,-99.99,,,0.00,Acu-Link.com,2013-05-22 15:28:00,
2013-05-22 11:44:00,80.8,71.3,29.69,SSE,157,3.7,-999.0,73,-99.99,,,0.00,Acu-Link.com,2013-05-22 15:44:00,
2013-05-22 11:59:00,82.4,72.4,29.69,West,270,2.2,-999.0,72,-99.99,,,0.00,Acu-Link.com,2013-05-22 15:59:00,
2013-05-22 12:14:00,83.3,70.7,29.69,SE,135,1.7,-999.0,66,-99.99,,,0.00,Acu-Link.com,2013-05-22 16:14:00,
2013-05-22 12:29:00,85.1,70.1,29.69,SSE,157,2.7,-999.0,61,-99.99,,,0.02,Acu-Link.com,2013-05-22 16:29:00,
2013-05-22 12:44:00,85.3,70.8,29.68,South,180,4.2,-999.0,62,-99.99,,,0.02,Acu-Link.com,2013-05-22 16:44:00,
2013-05-22 12:59:00,86.2,69.7,29.68,SSE,157,5.8,-999.0,58,-99.99,,,0.02,Acu-Link.com,2013-05-22 16:59:00,
2013-05-22 13:15:00,87.3,69.1,29.67,South,180,3.7,-999.0,55,-99.99,,,0.02,Acu-Link.com,2013-05-22 17:15:00,
2013-05-22 13:30:00,86.0,68.4,29.67,WSW,247,3.2,-999.0,56,-99.99,,,0.02,Acu-Link.com,2013-05-22 17:30:00,
2013-05-22 13:45:00,89.4,71.1,29.66,ESE,112,7.8,-999.0,55,-99.99,,,0.02,Acu-Link.com,2013-05-22 17:45:00,
2013-05-22 14:01:00,92.5,69.3,29.66,SW,225,2.2,-999.0,47,-99.99,,,0.02,Acu-Link.com,2013-05-22 18:01:00,
2013-05-22 14:16:00,93.6,67.7,29.64,NW,315,3.2,-999.0,43,-99.99,,,0.02,Acu-Link.com,2013-05-22 18:16:00,
2013-05-22 14:31:00,86.9,67.7,29.65,NE,45,3.7,-999.0,53,-99.99,,,0.02,Acu-Link.com,2013-05-22 18:31:00,
2013-05-22 14:46:00,71.4,66.3,29.68,SSE,157,3.7,-999.0,84,-99.99,,,0.02,Acu-Link.com,2013-05-22 18:46:00,
2013-05-22 15:02:00,71.4,70.8,29.64,SW,225,2.2,-999.0,98,-99.99,,,0.10,Acu-Link.com,2013-05-22 19:02:00,
2013-05-22 15:17:00,71.1,70.5,29.63,SSW,202,1.7,-999.0,98,-99.99,,,0.13,Acu-Link.com,2013-05-22 19:17:00,
2013-05-22 15:32:00,72.7,72.1,29.63,WNW,292,0.0,-999.0,98,-99.99,,,0.13,Acu-Link.com,2013-05-22 19:32:00,
2013-05-22 15:47:00,77.5,76.9,29.62,SSE,157,2.2,-999.0,98,-99.99,,,0.13,Acu-Link.com,2013-05-22 19:47:00,
2013-05-22 16:03:00,82.4,76.0,29.61,SW,225,1.1,-999.0,81,-99.99,,,0.13,Acu-Link.com,2013-05-22 20:03:00,
2013-05-22 16:18:00,85.8,75.3,29.60,SW,225,1.1,-999.0,71,-99.99,,,0.13,Acu-Link.com,2013-05-22 20:18:00,
2013-05-22 16:33:00,88.0,71.3,29.59,NNE,22,0.0,-999.0,58,-99.99,,,0.13,Acu-Link.com,2013-05-22 20:33:00,
2013-05-22 16:49:00,89.2,71.9,29.59,South,180,2.2,-999.0,57,-99.99,,,0.13,Acu-Link.com,2013-05-22 20:49:00,
2013-05-22 17:04:00,91.0,71.5,29.59,ESE,112,1.7,-999.0,53,-99.99,,,0.13,Acu-Link.com,2013-05-22 21:04:00,
2013-05-22 17:19:00,87.4,67.6,29.59,West,270,1.7,-999.0,52,-99.99,,,0.13,Acu-Link.com,2013-05-22 21:19:00,
2013-05-22 17:35:00,86.5,67.3,29.58,SW,225,3.7,-999.0,53,-99.99,,,0.13,Acu-Link.com,2013-05-22 21:35:00,
2013-05-22 17:50:00,83.8,67.4,29.58,SSE,157,1.7,-999.0,58,-99.99,,,0.13,Acu-Link.com,2013-05-22 21:50:00,
2013-05-22 18:05:00,83.7,68.8,29.59,SSE,157,2.2,-999.0,61,-99.99,,,0.13,Acu-Link.com,2013-05-22 22:05:00,
2013-05-22 18:20:00,81.0,67.7,29.59,West,270,4.2,-999.0,64,-99.99,,,0.13,Acu-Link.com,2013-05-22 22:20:00,
2013-05-22 18:35:00,77.9,63.8,29.62,SW,225,3.2,-999.0,62,-99.99,,,0.13,Acu-Link.com,2013-05-22 22:35:00,
2013-05-22 18:51:00,77.2,62.2,29.60,NNW,337,3.2,-999.0,60,-99.99,,,0.13,Acu-Link.com,2013-05-22 22:51:00,
2013-05-22 19:06:00,75.2,61.7,29.61,SSE,157,2.7,-999.0,63,-99.99,,,0.13,Acu-Link.com,2013-05-22 23:06:00,
2013-05-22 19:21:00,74.8,63.1,29.61,SSE,157,1.7,-999.0,67,-99.99,,,0.13,Acu-Link.com,2013-05-22 23:21:00,
2013-05-22 19:37:00,73.9,63.9,29.62,SSE,157,0.0,-999.0,71,-99.99,,,0.13,Acu-Link.com,2013-05-22 23:37:00,
2013-05-22 19:52:00,74.1,64.1,29.62,NNW,337,0.0,-999.0,71,-99.99,,,0.13,Acu-Link.com,2013-05-22 23:52:00,
2013-05-22 20:07:00,73.6,65.2,29.62,NNE,22,0.0,-999.0,75,-99.99,,,0.13,Acu-Link.com,2013-05-23 00:07:00,
2013-05-22 20:23:00,72.5,66.0,29.63,NE,45,0.0,-999.0,80,-99.99,,,0.13,Acu-Link.com,2013-05-23 00:23:00,
2013-05-22 20:38:00,71.2,67.8,29.63,SE,135,0.0,-999.0,89,-99.99,,,0.13,Acu-Link.com,2013-05-23 00:38:00,
2013-05-22 20:53:00,70.3,68.5,29.63,ESE,112,0.0,-999.0,94,-99.99,,,0.13,Acu-Link.com,2013-05-23 00:53:00,
2013-05-22 21:08:00,69.8,69.2,29.64,ESE,112,0.0,-999.0,98,-99.99,,,0.13,Acu-Link.com,2013-05-23 01:08:00,
2013-05-22 21:23:00,69.3,68.7,29.64,West,270,0.0,-999.0,98,-99.99,,,0.13,Acu-Link.com,2013-05-23 01:23:00,
2013-05-22 21:39:00,68.9,68.3,29.64,SW,225,0.0,-999.0,98,-99.99,,,0.13,Acu-Link.com,2013-05-23 01:39:00,
2013-05-22 21:54:00,68.4,67.8,29.64,ESE,112,0.0,-999.0,98,-99.99,,,0.13,Acu-Link.com,2013-05-23 01:54:00,
2013-05-22 22:09:00,68.2,67.6,29.66,ESE,112,0.0,-999.0,98,-99.99,,,0.13,Acu-Link.com,2013-05-23 02:09:00,
2013-05-22 22:24:00,67.8,67.2,29.66,NNW,337,0.0,-999.0,98,-99.99,,,0.13,Acu-Link.com,2013-05-23 02:24:00,
2013-05-22 22:39:00,67.3,66.7,29.67,NNW,337,0.0,-999.0,98,-99.99,,,0.13,Acu-Link.com,2013-05-23 02:39:00,
2013-05-22 22:55:00,66.9,66.3,29.66,NNW,337,0.0,-999.0,98,-99.99,,,0.13,Acu-Link.com,2013-05-23 02:55:00,
2013-05-22 23:10:00,66.7,66.1,29.67,NNW,337,0.0,-999.0,98,-99.99,,,0.13,Acu-Link.com,2013-05-23 03:10:00,
2013-05-22 23:25:00,66.7,66.1,29.66,NNW,337,2.2,-999.0,98,-99.99,,,0.13,Acu-Link.com,2013-05-23 03:25:00,
2013-05-22 23:41:00,66.7,66.1,29.69,SSE,157,1.7,-999.0,98,-99.99,,,0.13,Acu-Link.com,2013-05-23 03:41:00,
2013-05-22 23:56:00,66.6,66.0,29.68,East,90,0.0,-999.0,98,-99.99,,,0.13,Acu-Link.com,2013-05-23 03:56:00,